Time;durP1;ratioP1;P1;durP2;ratioP2;P2;SDS_P1;SDS_P2;PMS_P1;PMS_P2;Temp;Humidity;BMP_temperature;BMP_pressure;BME280_temperature;BME280_humidity;BME280_pressure;Samples;Min_cycle;Max_cycle;Signal;HPM_P1;HPM_P2
2022/05/18 00:00:13;;;;;;;;;5.00;4.75;;;;;25.41;45.55;101043.31;4971225;28;46094;-83
2022/05/18 00:02:39;;;;;;;;;4.75;4.75;;;;;25.47;46.01;101064.84;4971774;28;45749;-81
2022/05/18 00:05:10;;;;;;;;;4.50;4.50;;;;;25.41;46.26;101065.63;4980090;28;46680;-81
2022/05/18 00:07:38;;;;;;;;;5.00;4.25;;;;;25.35;46.17;101065.56;5030901;28;45994;-83
2022/05/18 00:10:04;;;;;;;;;6.00;5.00;;;;;25.28;46.49;101056.63;5029385;28;45858;-81
2022/05/18 00:12:30;;;;;;;;;5.75;5.00;;;;;25.24;46.76;101063.41;5031261;28;45623;-82
2022/05/18 00:14:55;;;;;;;;;4.75;4.75;;;;;25.18;47.00;101069.53;5030514;28;45710;-81
2022/05/18 00:17:23;;;;;;;;;4.00;4.00;;;;;25.15;47.18;101064.56;5030852;28;45635;-79
2022/05/18 00:23:37;;;;;;;;;5.00;4.00;;;;;25.05;48.00;101079.09;5248302;22;45912;-83
2022/05/18 00:26:05;;;;;;;;;3.75;3.75;;;;;25.03;48.64;101094.59;5076947;27;45607;-80
2022/05/18 00:28:32;;;;;;;;;5.00;5.00;;;;;24.91;48.24;101096.09;5066623;27;46427;-83
2022/05/18 00:31:06;;;;;;;;;6.00;4.75;;;;;24.78;48.83;101103.16;5070503;27;46161;-82
2022/05/18 00:33:39;;;;;;;;;5.00;5.00;;;;;24.63;49.27;101090.59;5062094;27;46031;-81
2022/05/18 00:36:08;;;;;;;;;6.50;5.75;;;;;24.57;49.46;101098.56;5066362;28;45927;-81
2022/05/18 00:38:42;;;;;;;;;6.00;5.50;;;;;24.51;50.34;101100.13;5070265;28;48099;-82
2022/05/18 00:41:08;;;;;;;;;6.75;6.00;;;;;24.42;50.01;101098.59;5057913;27;45770;-80
2022/05/18 01:03:39;;;;;;;;;7.00;7.00;;;;;24.02;51.96;101102.53;4962998;28;46082;-80
2022/05/18 01:06:13;;;;;;;;;7.00;5.00;;;;;24.17;52.49;101134.69;4969769;28;45783;-80
2022/05/18 01:08:44;;;;;;;;;6.25;6.00;;;;;24.19;52.47;101130.00;5049980;28;45728;-82
2022/05/18 01:11:10;;;;;;;;;5.25;5.25;;;;;24.13;52.83;101138.78;5069001;28;46640;-82
2022/05/18 01:13:36;;;;;;;;;6.50;5.00;;;;;24.15;52.58;101142.91;5070950;27;46213;-82
2022/05/18 01:16:02;;;;;;;;;6.00;5.00;;;;;24.12;52.59;101131.75;5072652;27;45852;-81
2022/05/18 01:18:34;;;;;;;;;6.50;5.25;;;;;24.00;52.62;101114.47;5074874;27;46444;-81
2022/05/18 01:21:02;;;;;;;;;7.00;6.00;;;;;24.07;53.12;101140.34;5079469;27;47097;-80
2022/05/18 01:23:45;;;;;;;;;6.75;6.00;;;;;24.04;53.50;101142.53;5076481;27;45673;-81
2022/05/18 01:32:13;;;;;;;;;7.00;6.00;;;;;23.85;53.44;101135.88;5256091;22;45621;-83
2022/05/18 01:40:43;;;;;;;;;6.75;5.75;;;;;23.58;54.96;101144.50;5021991;28;45636;-83
2022/05/18 01:57:26;;;;;;;;;8.75;6.25;;;;;23.14;55.83;101133.59;4876959;29;46806;-82
2022/05/18 02:05:50;;;;;;;;;6.00;6.00;;;;;23.02;57.03;101154.56;5175166;22;45703;-81
2022/05/18 02:08:19;;;;;;;;;7.25;6.00;;;;;22.97;57.03;101168.44;5076956;28;45691;-79
2022/05/18 02:10:44;;;;;;;;;7.75;6.25;;;;;22.94;56.78;101189.38;5071885;27;45975;-81
2022/05/18 02:13:10;;;;;;;;;5.00;5.00;;;;;22.87;57.91;101185.72;5078871;28;46139;-79
2022/05/18 02:15:36;;;;;;;;;5.75;5.75;;;;;22.68;57.96;101175.41;5080943;27;45803;-78
2022/05/18 02:18:01;;;;;;;;;7.25;7.25;;;;;22.62;58.26;101179.59;5079561;28;46396;-81
2022/05/18 02:20:27;;;;;;;;;6.75;6.00;;;;;22.49;58.52;101171.31;5079788;28;45689;-81
2022/05/18 02:22:53;;;;;;;;;5.00;5.00;;;;;22.44;57.78;101177.19;5078125;28;45818;-81
2022/05/18 02:25:21;;;;;;;;;6.50;6.00;;;;;22.44;58.15;101184.34;5064602;28;46435;-81
2022/05/18 02:27:47;;;;;;;;;6.50;6.00;;;;;22.31;58.94;101174.19;5078961;28;45987;-80
2022/05/18 02:30:14;;;;;;;;;5.75;5.75;;;;;22.28;58.62;101187.91;5086721;22;45563;-83
2022/05/18 02:35:12;;;;;;;;;5.25;5.25;;;;;22.21;59.03;101210.09;5265971;22;67682;-80
2022/05/18 02:40:28;;;;;;;;;4.00;4.00;;;;;22.10;59.12;101211.28;5109042;22;45619;-81
2022/05/18 02:47:15;;;;;;;;;5.00;5.00;;;;;22.07;59.08;101212.47;4943279;28;45843;-81
2022/05/18 02:53:23;;;;;;;;;4.50;4.50;;;;;21.93;59.14;101217.59;5406232;22;47028;-79
2022/05/18 02:59:40;;;;;;;;;4.25;4.00;;;;;21.80;59.13;101214.63;4923601;28;45887;-80
2022/05/18 03:02:09;;;;;;;;;5.00;5.00;;;;;21.77;59.50;101221.13;4917170;28;45999;-81
2022/05/18 03:04:34;;;;;;;;;3.25;3.00;;;;;21.68;58.64;101219.44;4931831;28;45681;-83
2022/05/18 03:07:03;;;;;;;;;4.00;3.00;;;;;21.71;57.99;101233.28;4910829;28;45968;-81
2022/05/18 03:09:28;;;;;;;;;3.00;3.00;;;;;21.65;58.34;101222.44;4915844;28;45579;-80
2022/05/18 03:11:55;;;;;;;;;2.75;2.25;;;;;21.56;58.06;101221.59;4912139;28;46825;-81
2022/05/18 03:14:21;;;;;;;;;2.00;2.00;;;;;21.52;57.95;101212.28;4922069;28;45583;-79
2022/05/18 03:16:46;;;;;;;;;2.00;2.00;;;;;21.48;57.73;101205.63;4929390;28;45876;-79
2022/05/18 03:19:13;;;;;;;;;2.00;2.00;;;;;21.53;57.66;101221.13;4897539;28;46159;-78
2022/05/18 03:24:23;;;;;;;;;3.50;2.75;;;;;21.47;57.67;101235.94;4915915;28;46174;-81
2022/05/18 03:26:48;;;;;;;;;4.00;3.00;;;;;21.35;57.98;101226.56;4914425;28;45755;-82
2022/05/18 03:29:14;;;;;;;;;2.50;2.50;;;;;21.34;58.76;101235.56;4926310;28;45974;-82
2022/05/18 03:31:41;;;;;;;;;4.00;4.00;;;;;21.34;59.40;101244.41;4951576;28;45792;-81
2022/05/18 03:34:08;;;;;;;;;3.75;3.25;;;;;21.28;59.39;101249.53;4952175;28;45598;-81
2022/05/18 03:36:34;;;;;;;;;4.00;4.00;;;;;21.21;59.83;101235.22;5020317;28;45702;-82
2022/05/18 03:39:00;;;;;;;;;5.00;4.00;;;;;21.10;59.77;101240.81;5053826;28;45576;-80
2022/05/18 03:41:26;;;;;;;;;3.75;3.00;;;;;21.08;59.39;101262.28;5042176;28;45635;-80
2022/05/18 03:43:52;;;;;;;;;2.00;2.00;;;;;20.94;59.32;101258.38;5054845;28;45808;-80
2022/05/18 03:46:17;;;;;;;;;3.00;2.00;;;;;20.92;58.84;101262.22;5055213;28;45666;-81
2022/05/18 03:48:43;;;;;;;;;2.00;1.75;;;;;20.84;58.38;101267.50;5037753;28;45848;-82
2022/05/18 03:51:11;;;;;;;;;2.75;2.75;;;;;20.91;58.48;101280.03;5055249;28;46676;-83
2022/05/18 03:53:37;;;;;;;;;3.00;2.75;;;;;20.73;59.41;101259.81;5054315;28;45865;-81
2022/05/18 03:56:03;;;;;;;;;3.00;3.00;;;;;20.79;59.21;101277.78;5051814;28;45712;-81
2022/05/18 03:58:29;;;;;;;;;3.00;3.00;;;;;20.71;59.24;101277.75;5049072;28;45817;-80
2022/05/18 04:00:58;;;;;;;;;3.75;3.25;;;;;20.61;59.55;101282.38;5051086;28;45629;-82
2022/05/18 04:03:26;;;;;;;;;4.75;3.75;;;;;20.52;59.54;101276.13;5033434;28;47589;-81
2022/05/18 04:05:53;;;;;;;;;4.75;3.75;;;;;20.52;59.77;101286.78;5050455;28;46260;-81
2022/05/18 04:08:18;;;;;;;;;2.00;2.00;;;;;20.31;59.84;101272.97;5052196;28;45698;-81
2022/05/18 04:10:44;;;;;;;;;3.00;3.00;;;;;20.35;59.65;101299.16;5051357;28;46647;-84
2022/05/18 04:13:25;;;;;;;;;2.00;2.00;;;;;20.27;59.76;101303.56;5051380;28;45606;-79
2022/05/18 04:15:51;;;;;;;;;3.00;3.00;;;;;20.20;60.16;101299.84;5040396;28;45991;-80
2022/05/18 04:18:18;;;;;;;;;2.00;2.00;;;;;20.15;59.85;101294.13;5051858;28;45565;-81
2022/05/18 04:20:44;;;;;;;;;2.00;2.00;;;;;20.10;59.76;101292.78;5051200;28;45721;-80
2022/05/18 04:23:11;;;;;;;;;2.50;2.00;;;;;20.19;59.90;101303.50;5051871;28;45677;-82
2022/05/18 04:25:36;;;;;;;;;2.00;2.00;;;;;20.20;59.73;101307.81;5033374;28;45674;-80
2022/05/18 04:28:03;;;;;;;;;2.00;2.00;;;;;20.13;59.22;101292.47;5051916;28;45750;-81
2022/05/18 04:30:29;;;;;;;;;2.00;2.00;;;;;20.16;59.26;101301.13;5051630;28;46138;-84
2022/05/18 04:32:55;;;;;;;;;2.50;2.50;;;;;20.06;59.45;101288.75;5050973;28;45615;-81
2022/05/18 04:35:23;;;;;;;;;2.00;1.50;;;;;20.16;58.95;101295.81;5051210;28;45699;-80
2022/05/18 04:37:49;;;;;;;;;2.50;2.50;;;;;20.20;58.94;101303.34;5051556;28;45685;-81
2022/05/18 04:40:39;;;;;;;;;2.00;1.00;;;;;20.21;58.28;101309.50;5051396;28;47428;-82
2022/05/18 04:43:05;;;;;;;;;1.75;1.50;;;;;20.09;58.41;101284.94;5051296;28;46348;-84
2022/05/18 04:45:30;;;;;;;;;2.00;2.00;;;;;20.14;58.19;101298.63;5054984;28;45846;-80
2022/05/18 04:47:59;;;;;;;;;1.00;1.00;;;;;20.20;57.95;101310.47;5053675;28;45803;-81
2022/05/18 04:53:53;;;;;;;;;2.50;0.50;;;;;20.15;57.98;101342.88;4963333;28;46130;-80
2022/05/18 04:56:19;;;;;;;;;2.00;1.25;;;;;20.03;57.67;101313.00;4944786;28;45990;-81
2022/05/18 04:58:45;;;;;;;;;1.50;1.50;;;;;20.05;57.85;101327.00;4949624;28;45697;-79
2022/05/18 05:01:11;;;;;;;;;2.00;2.00;;;;;20.09;57.72;101341.66;4944011;28;46397;-81
2022/05/18 05:03:37;;;;;;;;;2.00;1.25;;;;;20.11;57.56;101337.03;4939201;28;47148;-82
2022/05/18 05:06:05;;;;;;;;;1.00;1.00;;;;;20.01;57.51;101317.66;4941940;28;45752;-80
2022/05/18 05:09:13;;;;;;;;;1.25;1.00;;;;;20.09;57.17;101340.81;4940216;28;45766;-81
2022/05/18 05:11:39;;;;;;;;;1.00;1.00;;;;;20.00;57.53;101317.81;4924805;28;45881;-84
2022/05/18 05:16:40;;;;;;;;;1.00;1.00;;;;;20.06;57.03;101328.69;5193276;22;46732;-83
2022/05/18 05:19:06;;;;;;;;;2.00;1.00;;;;;20.11;57.33;101341.50;5034295;28;45944;-80
2022/05/18 05:21:31;;;;;;;;;1.00;1.00;;;;;20.05;57.42;101337.63;5033943;28;45646;-81
2022/05/18 05:24:10;;;;;;;;;2.00;1.00;;;;;20.08;56.94;101347.97;5035592;28;46318;-81
2022/05/18 05:30:27;;;;;;;;;2.00;1.00;;;;;20.01;56.93;101351.41;4948663;28;45780;-83
2022/05/18 05:44:24;;;;;;;;;2.50;1.50;;;;;19.91;56.39;101340.00;4802802;29;45737;-81
2022/05/18 05:46:53;;;;;;;;;2.00;1.00;;;;;20.10;56.29;101377.94;4764737;29;48312;-81
2022/05/18 05:49:21;;;;;;;;;2.00;2.00;;;;;20.12;56.23;101380.44;4765871;29;46295;-83
2022/05/18 05:52:39;;;;;;;;;2.25;2.25;;;;;20.20;56.46;101392.97;4764433;29;45930;-81
2022/05/18 06:07:04;;;;;;;;;2.00;2.00;;;;;20.33;56.05;101388.16;4970543;28;46113;-83
2022/05/18 06:09:31;;;;;;;;;3.00;2.00;;;;;20.38;56.49;101396.50;4971700;28;46548;-82
2022/05/18 06:11:56;;;;;;;;;1.50;1.25;;;;;20.35;55.92;101396.84;4981217;28;46270;-83
2022/05/18 06:14:22;;;;;;;;;1.00;0.75;;;;;20.40;55.88;101384.72;4972373;28;45679;-83
2022/05/18 06:23:39;;;;;;;;;1.25;1.25;;;;;20.51;55.54;101399.63;4844861;29;46060;-82
2022/05/18 06:36:14;;;;;;;;;2.00;1.00;;;;;20.52;54.64;101387.97;4819779;29;46531;-79
2022/05/18 06:38:56;;;;;;;;;;;;;;;;;;;;;
2022/05/18 06:42:05;;;;;;;;;1.50;1.00;;;;;20.72;54.27;101400.13;4856011;29;66688;-79
2022/05/18 06:44:31;;;;;;;;;2.00;1.50;;;;;20.75;54.30;101399.81;4864150;29;46097;-78
2022/05/18 06:47:00;;;;;;;;;0.75;0.75;;;;;20.77;53.84;101394.34;4866739;29;45931;-80
2022/05/18 06:49:26;;;;;;;;;1.50;1.50;;;;;20.82;53.81;101400.88;4867455;29;46197;-80
2022/05/18 06:55:30;;;;;;;;;2.00;1.25;;;;;20.83;53.37;101399.88;4830226;29;45884;-78
2022/05/18 07:02:32;;;;;;;;;2.00;0.75;;;;;21.00;53.18;101414.13;4808225;29;45996;-78
2022/05/18 07:04:57;;;;;;;;;1.25;1.00;;;;;21.01;53.38;101402.47;4801598;29;45913;-77
2022/05/18 07:23:07;;;;;;;;;3.75;1.75;;;;;21.22;53.11;101399.44;4693813;30;46085;-80
2022/05/18 07:25:33;;;;;;;;;1.75;1.00;;;;;21.19;53.14;101389.13;4695710;30;46396;-79
2022/05/18 07:28:01;;;;;;;;;2.50;2.50;;;;;21.29;52.80;101393.34;4696478;30;46372;-81
2022/05/18 07:30:27;;;;;;;;;2.25;1.50;;;;;21.21;52.69;101373.81;4774326;29;45828;-80
2022/05/18 07:32:52;;;;;;;;;1.75;0.75;;;;;21.39;52.64;101397.72;4787808;29;45679;-79
2022/05/18 07:35:17;;;;;;;;;2.50;1.25;;;;;21.41;52.67;101393.06;4777691;29;45930;-80
2022/05/18 07:37:43;;;;;;;;;1.75;1.75;;;;;21.49;52.81;101404.59;4791082;29;47143;-79
2022/05/18 07:40:09;;;;;;;;;1.75;1.75;;;;;21.46;52.39;101388.91;4798188;29;46106;-80
2022/05/18 07:42:56;;;;;;;;;2.00;2.00;;;;;21.59;52.93;101407.97;5129952;27;46035;-80
2022/05/18 07:45:25;;;;;;;;;2.25;2.00;;;;;21.61;52.12;101403.31;5083132;27;45722;-80
2022/05/18 07:47:52;;;;;;;;;3.00;3.00;;;;;21.67;52.36;101408.00;5085140;27;47324;-80
2022/05/18 07:50:19;;;;;;;;;2.00;2.00;;;;;21.70;52.06;101402.34;5088001;27;46515;-79
2022/05/18 08:09:22;;;;;;;;;2.00;1.50;;;;;21.99;52.11;101409.13;5149391;22;45566;-82
2022/05/18 08:17:21;;;;;;;;;2.50;2.00;;;;;22.13;51.95;101392.47;5064552;28;46929;-81
2022/05/18 08:19:47;;;;;;;;;3.50;2.50;;;;;22.13;51.80;101393.28;5062913;28;45714;-79
2022/05/18 08:22:13;;;;;;;;;2.50;2.25;;;;;22.22;51.65;101402.16;5060054;27;47561;-79
2022/05/18 08:24:39;;;;;;;;;1.25;1.25;;;;;22.26;52.13;101390.16;5065897;27;45729;-77
2022/05/18 08:27:10;;;;;;;;;2.25;2.00;;;;;22.31;51.88;101387.81;5062737;27;45631;-84
2022/05/18 08:29:36;;;;;;;;;2.00;2.00;;;;;22.32;52.14;101375.28;5074341;27;45922;-82
2022/05/18 08:32:02;;;;;;;;;3.00;2.50;;;;;22.43;51.34;101397.16;5060279;27;46373;-83
2022/05/18 08:34:28;;;;;;;;;3.75;3.75;;;;;22.44;51.66;101368.63;5065388;27;46060;-82
2022/05/18 08:36:53;;;;;;;;;2.25;2.00;;;;;22.56;51.07;101386.00;5064369;28;45617;-80
2022/05/18 08:39:19;;;;;;;;;3.00;2.00;;;;;22.56;51.54;101378.78;5065023;27;45666;-85
2022/05/18 08:41:46;;;;;;;;;3.25;2.50;;;;;22.53;51.13;101368.44;5079481;27;48394;-87
2022/05/18 08:44:25;;;;;;;;;3.75;3.25;;;;;22.60;51.29;101371.28;5063835;28;46292;-86
2022/05/18 08:46:59;;;;;;;;;2.25;2.00;;;;;22.68;50.86;101376.59;5059812;27;45808;-80
2022/05/18 08:49:37;;;;;;;;;2.50;2.50;;;;;22.77;50.74;101389.00;5057905;28;45725;-81
2022/05/18 08:52:37;;;;;;;;;3.00;3.00;;;;;22.82;51.38;101384.00;5060261;28;46778;-80
2022/05/18 08:55:21;;;;;;;;;3.00;2.50;;;;;22.88;50.79;101387.81;5040291;28;46175;-81
2022/05/18 08:57:49;;;;;;;;;5.00;3.00;;;;;22.89;50.67;101378.78;5050973;28;46290;-85
2022/05/18 09:03:59;;;;;;;;;4.75;4.00;;;;;23.02;50.33;101373.75;4974931;28;46744;-83
2022/05/18 09:06:53;;;;;;;;;4.50;3.75;;;;;23.11;50.60;101377.22;4985975;28;46282;-83
2022/05/18 09:12:18;;;;;;;;;4.75;3.00;;;;;23.12;50.94;101357.50;4986948;28;45781;-84
2022/05/18 09:14:45;;;;;;;;;3.75;2.75;;;;;23.15;50.41;101357.19;4991737;28;46053;-82
2022/05/18 09:17:46;;;;;;;;;4.00;4.00;;;;;23.29;50.95;101373.31;4984944;28;46351;-82
2022/05/18 09:20:32;;;;;;;;;4.00;3.00;;;;;23.33;50.93;101369.28;4962275;28;45791;-82
2022/05/18 09:22:57;;;;;;;;;4.00;3.00;;;;;23.35;50.50;101367.28;4983795;28;45856;-78
2022/05/18 09:25:47;;;;;;;;;3.00;3.00;;;;;23.39;50.79;101365.09;4988168;28;46651;-81
2022/05/18 09:28:37;;;;;;;;;5.50;4.50;;;;;23.42;50.14;101362.94;4986796;28;46771;-80
2022/05/18 09:31:37;;;;;;;;;4.75;4.00;;;;;23.49;50.03;101359.56;4982019;28;45891;-81
2022/05/18 09:34:24;;;;;;;;;3.00;2.00;;;;;23.54;50.15;101363.38;4981826;28;46048;-81
2022/05/18 09:37:08;;;;;;;;;4.00;3.00;;;;;23.61;50.78;101359.00;4987635;28;46812;-82
2022/05/18 09:39:40;;;;;;;;;4.75;4.00;;;;;23.61;50.29;101350.13;4994889;28;46176;-82
2022/05/18 09:42:11;;;;;;;;;4.00;3.00;;;;;23.65;50.16;101348.78;5052452;28;45926;-79
2022/05/18 09:44:59;;;;;;;;;4.00;4.00;;;;;23.73;49.69;101360.28;5054975;28;45647;-81
2022/05/18 09:47:27;;;;;;;;;3.25;2.25;;;;;23.75;49.79;101358.25;5052354;28;46590;-79
2022/05/18 09:49:56;;;;;;;;;4.25;3.50;;;;;23.69;49.56;101339.41;5048948;28;47446;-79
2022/05/18 09:52:28;;;;;;;;;4.50;4.00;;;;;23.79;50.19;101348.88;5049557;28;45846;-81
2022/05/18 09:54:56;;;;;;;;;3.50;3.00;;;;;23.80;49.99;101339.00;5045140;28;46276;-84
2022/05/18 09:57:35;;;;;;;;;4.00;4.00;;;;;23.91;50.00;101348.47;5050057;28;46702;-80
2022/05/18 10:00:30;;;;;;;;;4.00;3.00;;;;;23.91;49.72;101333.25;5044503;28;46075;-82
2022/05/18 10:08:57;;;;;;;;;5.00;5.00;;;;;24.07;49.63;101330.44;5044675;28;45771;-84
2022/05/18 10:11:34;;;;;;;;;3.50;3.50;;;;;24.07;49.00;101311.69;5042673;28;46400;-80
2022/05/18 10:14:08;;;;;;;;;4.00;3.25;;;;;24.21;48.60;101329.69;5029580;28;45800;-81
2022/05/18 10:16:47;;;;;;;;;4.25;3.50;;;;;24.25;48.83;101330.16;5041721;28;46318;-84
2022/05/18 10:19:44;;;;;;;;;3.50;3.00;;;;;24.31;48.78;101328.59;5028832;28;46958;-82
2022/05/18 10:22:14;;;;;;;;;6.25;3.75;;;;;24.35;48.62;101329.88;4977791;28;45760;-81
2022/05/18 10:24:53;;;;;;;;;3.25;3.00;;;;;24.35;48.96;101308.47;4990022;28;45708;-85
2022/05/18 10:27:24;;;;;;;;;3.50;3.50;;;;;24.46;48.87;101319.56;4990458;28;45679;-87
2022/05/18 10:30:08;;;;;;;;;3.00;3.00;;;;;24.50;48.42;101312.03;4987976;28;47116;-88
2022/05/18 10:32:36;;;;;;;;;3.50;3.00;;;;;24.39;48.07;101286.50;4984037;28;47311;-88
2022/05/18 10:35:32;;;;;;;;;3.00;2.50;;;;;24.58;47.76;101311.94;4989150;28;45620;-90
2022/05/18 10:38:18;;;;;;;;;4.25;4.00;;;;;24.52;47.83;101293.91;4988076;28;45825;-85
2022/05/18 10:40:46;;;;;;;;;4.50;4.00;;;;;24.55;47.78;101294.38;4993783;28;45718;-89
2022/05/18 10:43:29;;;;;;;;;4.75;3.00;;;;;24.72;48.20;101296.88;5002320;28;45825;-89
2022/05/18 10:45:59;;;;;;;;;5.00;3.00;;;;;24.73;47.77;101285.97;4979383;28;45622;-88
2022/05/18 10:48:35;;;;;;;;;3.75;3.75;;;;;24.83;47.38;101288.38;4998585;28;45991;-87
2022/05/18 10:51:14;;;;;;;;;4.00;4.00;;;;;24.92;46.88;101292.66;4985159;28;48844;-89
2022/05/18 10:54:17;;;;;;;;;3.25;3.25;;;;;24.90;46.95;101275.91;5037371;28;45546;-86
2022/05/18 10:56:38;;;;;;;;;6.25;4.00;;;;;24.92;46.69;101273.88;5051990;28;45979;-87
2022/05/18 10:59:40;;;;;;;;;3.25;3.00;;;;;24.92;46.17;101261.31;5066394;28;46033;-89
2022/05/18 11:05:17;;;;;;;;;2.25;2.00;;;;;25.18;45.63;101284.13;5021029;28;46122;-88
2022/05/18 11:08:08;;;;;;;;;4.00;3.00;;;;;25.17;45.42;101267.19;5002972;28;45662;-90
2022/05/18 11:10:46;;;;;;;;;3.00;3.00;;;;;25.26;45.24;101271.44;4943820;28;45852;-88
2022/05/18 11:13:39;;;;;;;;;3.00;3.00;;;;;25.20;45.10;101255.25;4944122;28;45703;-91
2022/05/18 11:16:17;;;;;;;;;4.00;4.00;;;;;25.35;44.75;101282.88;4936221;28;47957;-90
2022/05/18 11:18:45;;;;;;;;;3.00;2.75;;;;;25.38;44.79;101279.81;4946633;28;45476;-90
2022/05/18 11:21:59;;;;;;;;;;;;;;;;;;;;;
2022/05/18 11:24:33;;;;;;;;;4.00;3.75;;;;;25.43;44.43;101272.84;4942160;28;74717;-85
2022/05/18 11:27:29;;;;;;;;;3.00;2.25;;;;;25.36;44.47;101252.34;4945896;28;47144;-86
2022/05/18 11:30:10;;;;;;;;;3.00;2.00;;;;;25.46;44.25;101264.44;4928077;28;45898;-83
2022/05/18 11:32:39;;;;;;;;;3.00;2.00;;;;;25.57;44.33;101265.81;4939789;28;45702;-85
2022/05/18 11:35:42;;;;;;;;;3.00;3.00;;;;;25.63;44.18;101272.28;4925366;28;47872;-84
2022/05/18 11:39:06;;;;;;;;;3.00;3.00;;;;;25.59;44.50;101249.53;4953310;28;46742;-88
2022/05/18 11:41:38;;;;;;;;;3.00;2.00;;;;;25.76;44.42;101265.19;4946305;28;46113;-85
2022/05/18 11:44:39;;;;;;;;;3.00;3.00;;;;;25.71;44.20;101248.81;4962339;28;45718;-88
2022/05/18 11:47:13;;;;;;;;;2.25;2.00;;;;;25.89;43.26;101251.88;4993456;28;48549;-79
2022/05/18 11:50:11;;;;;;;;;3.00;3.00;;;;;25.85;42.77;101231.00;5030673;28;45769;-79
2022/05/18 11:52:53;;;;;;;;;3.00;3.00;;;;;26.01;42.61;101246.81;5024803;28;45832;-80
2022/05/18 11:55:57;;;;;;;;;4.00;3.00;;;;;26.06;42.24;101241.69;5027079;28;45696;-79
2022/05/18 11:58:52;;;;;;;;;2.75;2.25;;;;;26.11;42.14;101238.44;4987112;28;46079;-78
2022/05/18 12:02:14;;;;;;;;;3.00;3.00;;;;;26.17;41.89;101243.03;4986712;28;46322;-78
2022/05/18 12:05:00;;;;;;;;;3.50;3.00;;;;;26.21;41.68;101238.91;4924282;28;45783;-80
2022/05/18 12:07:49;;;;;;;;;3.00;3.00;;;;;26.23;41.62;101237.75;4965531;28;45867;-77
2022/05/18 12:10:24;;;;;;;;;3.00;3.00;;;;;26.19;41.27;101217.59;4987518;28;45725;-78
2022/05/18 12:13:05;;;;;;;;;2.00;2.00;;;;;26.31;41.26;101224.13;4990098;28;45643;-78
2022/05/18 12:16:02;;;;;;;;;3.00;2.25;;;;;26.36;41.35;101223.53;4999501;28;45780;-79
2022/05/18 12:18:59;;;;;;;;;2.75;2.75;;;;;26.41;40.95;101221.09;5001960;28;45984;-80
2022/05/18 12:21:42;;;;;;;;;4.00;3.00;;;;;26.47;41.20;101223.00;4994033;28;46969;-79
2022/05/18 12:24:09;;;;;;;;;3.00;3.00;;;;;26.47;40.71;101214.94;5008835;28;46341;-80
2022/05/18 12:26:56;;;;;;;;;3.00;3.00;;;;;26.55;40.51;101222.84;4981209;28;45711;-81
2022/05/18 12:29:24;;;;;;;;;3.50;3.25;;;;;26.55;39.68;101213.94;5009994;28;46131;-79
2022/05/18 12:35:18;;;;;;;;;2.00;2.00;;;;;26.69;39.59;101215.66;4977942;28;45838;-81
2022/05/18 12:38:06;;;;;;;;;3.00;3.00;;;;;26.71;40.11;101208.25;4976628;28;45671;-81
2022/05/18 12:40:48;;;;;;;;;3.75;3.00;;;;;26.74;39.62;101202.44;4976715;28;45561;-79
2022/05/18 12:43:45;;;;;;;;;2.00;2.00;;;;;26.85;39.48;101214.50;4972871;28;45758;-79
2022/05/18 12:46:50;;;;;;;;;2.00;2.00;;;;;26.90;38.94;101202.13;4960780;28;46405;-79
2022/05/18 12:49:37;;;;;;;;;3.25;2.25;;;;;26.95;39.30;101202.34;4963152;28;45606;-79
2022/05/18 12:52:30;;;;;;;;;4.25;2.25;;;;;26.99;39.11;101202.81;4973421;28;45783;-79
2022/05/18 12:55:03;;;;;;;;;3.00;2.00;;;;;27.03;37.89;101195.97;4973512;28;47210;-79
2022/05/18 12:57:40;;;;;;;;;3.00;3.00;;;;;27.12;37.85;101202.84;4973585;28;46190;-79
2022/05/18 13:00:24;;;;;;;;;2.00;2.00;;;;;27.18;37.93;101196.66;4957260;28;46071;-79
2022/05/18 13:02:57;;;;;;;;;5.00;3.00;;;;;27.24;38.44;101193.16;4973514;28;45986;-79
2022/05/18 13:05:53;;;;;;;;;3.00;2.00;;;;;27.31;38.26;101188.63;4974722;28;45601;-79
2022/05/18 13:08:18;;;;;;;;;3.25;3.00;;;;;27.39;36.97;101191.09;4974688;28;46461;-79
2022/05/18 13:11:18;;;;;;;;;3.00;2.75;;;;;27.46;37.41;101183.88;5020433;28;45744;-80
2022/05/18 13:14:01;;;;;;;;;2.75;2.25;;;;;27.52;38.15;101174.16;5065263;28;45594;-79
2022/05/18 13:16:39;;;;;;;;;2.00;2.00;;;;;27.59;37.91;101179.53;5074922;28;46561;-80
2022/05/18 13:19:13;;;;;;;;;3.75;3.75;;;;;27.64;37.53;101174.38;5069234;28;46641;-80
2022/05/18 13:22:37;;;;;;;;;4.00;4.00;;;;;27.72;38.13;101180.38;5074205;27;45743;-80
2022/05/18 13:31:01;;;;;;;;;2.50;2.50;;;;;27.97;37.61;101170.63;5146357;22;47895;-79
2022/05/18 13:33:38;;;;;;;;;3.00;3.00;;;;;28.04;37.42;101159.00;5014373;28;45745;-79
2022/05/18 13:36:04;;;;;;;;;2.00;2.00;;;;;28.11;37.14;101163.38;4983795;28;46180;-80
2022/05/18 13:42:12;;;;;;;;;3.50;3.00;;;;;28.16;35.35;101154.69;5017459;22;46085;-80
2022/05/18 13:44:38;;;;;;;;;1.00;1.00;;;;;28.12;35.69;101130.03;5054251;28;45826;-79
2022/05/18 13:47:19;;;;;;;;;2.00;2.00;;;;;28.18;35.35;101134.53;5053899;28;45707;-78
2022/05/18 13:49:44;;;;;;;;;2.00;2.00;;;;;28.20;36.15;101135.16;5041041;28;45621;-78
2022/05/18 13:55:44;;;;;;;;;3.00;1.25;;;;;28.27;36.32;101133.28;5053895;28;45700;-79
2022/05/18 13:58:16;;;;;;;;;3.00;3.00;;;;;28.34;36.49;101133.28;5053667;28;45501;-78
2022/05/18 14:00:44;;;;;;;;;1.75;1.75;;;;;28.41;36.15;101120.59;5054207;28;46667;-79
2022/05/18 14:03:18;;;;;;;;;1.00;1.00;;;;;28.44;35.95;101109.38;5053251;28;45644;-77
2022/05/18 14:11:43;;;;;;;;;1.25;1.25;;;;;28.65;35.07;101105.56;5110661;22;45956;-78
2022/05/18 14:14:09;;;;;;;;;1.00;1.00;;;;;28.72;34.99;101101.78;5028773;28;47859;-79
2022/05/18 14:16:42;;;;;;;;;2.00;1.00;;;;;28.80;34.68;101098.03;5035457;28;45733;-77
2022/05/18 14:19:09;;;;;;;;;1.75;1.00;;;;;28.82;34.63;101085.16;5053063;28;45595;-79
2022/05/18 14:21:41;;;;;;;;;2.00;2.00;;;;;28.91;34.52;101089.25;5032946;28;45901;-78
2022/05/18 14:24:07;;;;;;;;;1.50;1.00;;;;;28.94;33.65;101075.31;5033565;28;45695;-78
2022/05/18 14:26:57;;;;;;;;;1.00;0.75;;;;;28.97;33.90;101074.88;5025027;28;45720;-78
2022/05/18 14:29:33;;;;;;;;;1.00;1.00;;;;;29.01;33.36;101068.00;5033429;28;45620;-77
2022/05/18 14:32:05;;;;;;;;;1.00;1.00;;;;;29.06;34.09;101064.63;5032904;28;45551;-78
2022/05/18 14:34:39;;;;;;;;;2.00;2.00;;;;;29.15;33.98;101069.53;5033621;28;46306;-78
2022/05/18 14:37:11;;;;;;;;;1.00;1.00;;;;;29.17;34.02;101053.13;5033418;28;45658;-79
2022/05/18 14:39:41;;;;;;;;;2.25;2.25;;;;;29.29;33.73;101064.06;5033252;28;45800;-78
2022/05/18 14:42:10;;;;;;;;;1.25;1.25;;;;;29.36;33.60;101054.88;5032395;28;46458;-77
2022/05/18 14:44:35;;;;;;;;;0.50;0.50;;;;;29.48;33.55;101052.25;5034429;28;45773;-80
2022/05/18 14:47:07;;;;;;;;;1.00;1.00;;;;;29.51;32.76;101041.03;5036240;28;45973;-78
2022/05/18 14:49:38;;;;;;;;;1.50;1.50;;;;;29.66;33.39;101052.31;5025517;28;45682;-78
2022/05/18 14:52:08;;;;;;;;;1.75;1.50;;;;;29.75;33.20;101045.56;5020451;28;46267;-79
2022/05/18 14:54:46;;;;;;;;;2.00;2.00;;;;;29.90;33.19;101046.06;5028007;28;45989;-78
2022/05/18 14:57:22;;;;;;;;;1.00;0.00;;;;;30.09;32.95;101043.34;5025655;28;45664;-78
2022/05/18 14:59:54;;;;;;;;;1.50;1.50;;;;;30.24;32.71;101033.78;5025593;28;45743;-78
2022/05/18 15:02:21;;;;;;;;;1.75;1.75;;;;;30.76;31.88;101040.38;5009292;28;46996;-78
2022/05/18 15:05:09;;;;;;;;;1.75;1.50;;;;;31.78;31.47;101030.13;5005670;28;47012;-79
2022/05/18 15:07:39;;;;;;;;;1.25;1.00;;;;;33.01;30.29;101037.69;5007523;28;46112;-78
2022/05/18 15:10:16;;;;;;;;;0.00;0.00;;;;;33.93;29.26;101029.88;5027035;28;45764;-79
2022/05/18 15:12:46;;;;;;;;;0.50;0.50;;;;;34.66;28.38;101028.50;5026843;28;46578;-78
2022/05/18 15:15:52;;;;;;;;;1.00;0.50;;;;;35.07;26.70;101026.19;5009424;28;47680;-79
2022/05/18 15:18:37;;;;;;;;;1.00;1.00;;;;;35.36;27.18;101031.03;4954022;28;45795;-78
2022/05/18 15:21:28;;;;;;;;;0.75;0.75;;;;;35.84;26.82;101031.91;4938282;28;46001;-79
2022/05/18 15:24:08;;;;;;;;;1.00;1.00;;;;;36.30;25.51;101022.00;4944631;28;46623;-79
2022/05/18 15:26:50;;;;;;;;;0.50;0.50;;;;;36.58;24.54;101026.13;4935724;28;47319;-80
2022/05/18 15:29:17;;;;;;;;;0.25;0.25;;;;;36.74;23.95;101013.34;4949312;28;46164;-78